createdAt,value
2023-05-01T00:01:08.152Z,8.53
2023-05-01T00:03:36.102Z,8.46
2023-05-01T00:06:05.664Z,8.39
2023-05-01T00:08:32.933Z,8.36
2023-05-01T00:11:09.870Z,8.30
2023-05-01T00:13:37.072Z,8.27
2023-05-01T00:16:13.711Z,8.23
2023-05-01T00:18:41.247Z,8.19
2023-05-01T00:21:08.840Z,8.12
2023-05-01T00:23:36.221Z,8.08
2023-05-01T00:26:03.781Z,8.01
2023-05-01T00:28:31.335Z,7.99
2023-05-01T00:30:58.793Z,7.90
2023-05-01T00:33:25.982Z,7.85
2023-05-01T00:35:53.496Z,7.87
2023-05-01T00:38:20.718Z,7.84
2023-05-01T00:40:48.108Z,7.79
2023-05-01T00:43:15.582Z,7.77
2023-05-01T00:45:46.473Z,7.72
2023-05-01T00:48:15.876Z,7.68
2023-05-01T00:50:45.729Z,7.61
2023-05-01T00:53:13.295Z,7.56
2023-05-01T00:55:42.804Z,7.49
2023-05-01T00:58:12.177Z,7.48
2023-05-01T01:00:40.060Z,7.48
2023-05-01T01:03:07.659Z,7.40
2023-05-01T01:05:44.980Z,7.34
2023-05-01T01:08:32.551Z,7.27
2023-05-01T01:11:14.859Z,7.21
2023-05-01T01:14:08.368Z,7.19
2023-05-01T01:16:49.368Z,7.15
2023-05-01T01:19:44.032Z,7.08
2023-05-01T01:22:23.055Z,7.03
2023-05-01T01:25:08.435Z,6.99
2023-05-01T01:28:22.106Z,6.95
2023-05-01T01:31:14.150Z,6.91
2023-05-01T01:34:01.904Z,6.89
2023-05-01T01:36:43.533Z,6.88
2023-05-01T01:39:24.937Z,6.87
2023-05-01T01:41:54.668Z,6.82
2023-05-01T01:44:41.825Z,6.76
2023-05-01T01:47:13.934Z,6.73
2023-05-01T01:49:51.888Z,6.68
2023-05-01T01:52:23.800Z,6.66
2023-05-01T01:54:58.537Z,6.61
2023-05-01T01:57:28.320Z,6.56
2023-05-01T01:59:57.792Z,6.52
2023-05-01T02:02:27.757Z,6.53
2023-05-01T02:04:57.457Z,6.48
2023-05-01T02:07:26.848Z,6.46
2023-05-01T02:09:57.384Z,6.42
2023-05-01T02:12:27.073Z,6.41
2023-05-01T02:14:56.203Z,6.35
2023-05-01T02:17:24.871Z,6.32
2023-05-01T02:19:55.107Z,6.30
2023-05-01T02:22:25.830Z,6.28
2023-05-01T02:24:57.561Z,6.26
2023-05-01T02:27:32.251Z,6.21
2023-05-01T02:29:59.861Z,6.17
2023-05-01T02:32:28.467Z,6.14
2023-05-01T02:34:57.495Z,6.13
2023-05-01T02:37:25.100Z,6.12
2023-05-01T02:39:53.190Z,6.07
2023-05-01T02:42:25.646Z,6.02
2023-05-01T02:45:20.518Z,5.97
2023-05-01T02:47:54.978Z,5.91
2023-05-01T02:50:24.772Z,5.90
2023-05-01T02:52:52.416Z,5.85
2023-05-01T02:55:32.965Z,5.77
2023-05-01T02:58:00.341Z,5.74
2023-05-01T03:00:29.921Z,5.67
2023-05-01T03:02:58.249Z,5.63
2023-05-01T03:05:25.914Z,5.59
2023-05-01T03:07:53.161Z,5.53
2023-05-01T03:10:21.038Z,5.48
2023-05-01T03:12:48.251Z,5.40
2023-05-01T03:15:16.304Z,5.38
2023-05-01T03:17:43.493Z,5.36
2023-05-01T03:20:11.482Z,5.35
2023-05-01T03:22:39.524Z,5.34
2023-05-01T03:25:09.343Z,5.35
2023-05-01T03:27:37.124Z,5.32
2023-05-01T03:30:05.151Z,5.29
2023-05-01T03:32:37.691Z,5.29
2023-05-01T03:35:09.263Z,5.28
2023-05-01T03:37:36.990Z,5.31
2023-05-01T03:40:05.124Z,5.29
2023-05-01T03:42:50.761Z,5.27
2023-05-01T03:45:22.118Z,5.27
2023-05-01T03:47:49.310Z,5.31
2023-05-01T03:50:17.867Z,5.26
2023-05-01T03:52:47.459Z,5.28
2023-05-01T03:55:15.039Z,5.33
2023-05-01T03:57:43.268Z,5.34
2023-05-01T04:00:12.422Z,5.36
2023-05-01T04:02:47.629Z,5.40
2023-05-01T04:05:21.544Z,5.45
2023-05-01T04:07:53.898Z,5.53
2023-05-01T04:10:21.383Z,5.56
2023-05-01T04:12:56.925Z,5.63
2023-05-01T04:15:24.489Z,5.71
2023-05-01T04:17:52.712Z,5.79
2023-05-01T04:20:20.548Z,5.87
2023-05-01T04:22:48.002Z,5.95
2023-05-01T04:25:15.641Z,6.04
2023-05-01T04:27:45.066Z,6.15
2023-05-01T04:30:13.549Z,6.26
2023-05-01T04:32:40.865Z,6.37
2023-05-01T04:35:09.531Z,6.49
2023-05-01T04:37:38.002Z,6.67
2023-05-01T04:40:06.682Z,6.83
2023-05-01T04:42:34.411Z,6.95
2023-05-01T04:45:04.302Z,7.08
2023-05-01T04:47:35.925Z,7.30
2023-05-01T04:50:03.592Z,7.48
2023-05-01T04:52:32.164Z,7.67
2023-05-01T04:55:03.696Z,7.84
2023-05-01T04:57:34.139Z,8.02
2023-05-01T05:00:07.676Z,8.20
2023-05-01T05:02:40.478Z,8.37
2023-05-01T05:05:09.559Z,8.52
2023-05-01T05:07:36.914Z,8.65
2023-05-01T05:10:22.904Z,8.79
2023-05-01T05:13:03.271Z,8.93
2023-05-01T05:15:30.847Z,9.09
2023-05-01T05:17:58.339Z,9.27
2023-05-01T05:20:26.732Z,9.46
2023-05-01T05:22:54.261Z,9.71
2023-05-01T05:25:24.753Z,9.98
2023-05-01T05:27:53.132Z,10.23
2023-05-01T05:30:20.541Z,10.47
2023-05-01T05:32:48.321Z,10.69
2023-05-01T05:35:15.959Z,10.85
2023-05-01T05:37:45.969Z,11.04
2023-05-01T05:40:14.305Z,11.38
2023-05-01T05:42:52.492Z,11.67
2023-05-01T05:45:20.946Z,11.82
2023-05-01T05:47:48.580Z,12.01
2023-05-01T05:50:16.673Z,12.25
2023-05-01T05:52:45.729Z,12.42
2023-05-01T05:55:13.971Z,12.66
2023-05-01T05:57:46.314Z,12.97
2023-05-01T06:00:14.660Z,13.26
2023-05-01T06:02:48.284Z,13.56
2023-05-01T06:05:15.997Z,13.84
2023-05-01T06:07:43.643Z,14.18
2023-05-01T06:10:11.628Z,14.64
2023-05-01T06:12:40.710Z,15.01
2023-05-01T06:15:11.888Z,15.25
2023-05-01T06:17:44.381Z,15.49
2023-05-01T06:20:14.105Z,15.52
2023-05-01T06:22:41.327Z,15.60
2023-05-01T06:25:16.133Z,15.74
2023-05-01T06:27:43.552Z,15.83
2023-05-01T06:30:11.571Z,15.96
2023-05-01T06:32:43.678Z,16.44
2023-05-01T06:35:12.389Z,16.83
2023-05-01T06:37:39.887Z,16.96
2023-05-01T06:40:09.997Z,17.32
2023-05-01T06:42:39.285Z,17.49
2023-05-01T06:45:32.149Z,17.63
2023-05-01T06:47:59.358Z,17.50
2023-05-01T06:50:26.843Z,17.37
2023-05-01T06:52:54.296Z,17.64
2023-05-01T06:55:22.152Z,17.78
2023-05-01T06:57:49.289Z,18.18
2023-05-01T07:00:18.113Z,18.38
2023-05-01T07:02:46.542Z,18.39
2023-05-01T07:05:14.065Z,18.38
2023-05-01T07:07:47.344Z,18.57
2023-05-01T07:10:18.049Z,19.97
2023-05-01T07:12:45.119Z,20.76
2023-05-01T07:15:14.326Z,20.92
2023-05-01T07:17:41.555Z,21.16
2023-05-01T07:20:10.484Z,21.15
2023-05-01T07:22:37.545Z,21.11
2023-05-01T07:25:06.070Z,21.11
2023-05-01T07:27:33.129Z,21.05
2023-05-01T07:30:01.879Z,21.14
2023-05-01T07:32:29.148Z,21.18
2023-05-01T07:34:56.592Z,21.04
2023-05-01T07:37:24.303Z,21.17
2023-05-01T07:39:51.720Z,21.20
2023-05-01T07:42:18.865Z,21.39
2023-05-01T07:44:46.730Z,21.57
2023-05-01T07:47:13.829Z,21.59
2023-05-01T07:49:41.544Z,21.67
2023-05-01T07:52:08.733Z,21.65
2023-05-01T07:54:36.237Z,21.67
2023-05-01T07:57:09.383Z,21.68
2023-05-01T07:59:37.139Z,21.64
2023-05-01T08:02:04.221Z,22.08
2023-05-01T08:04:31.796Z,22.33
2023-05-01T08:06:58.975Z,22.22
2023-05-01T08:09:26.478Z,22.39
2023-05-01T08:11:53.646Z,22.30
2023-05-01T08:14:21.042Z,22.42
2023-05-01T08:16:54.184Z,22.67
2023-05-01T08:19:22.053Z,23.04
2023-05-01T08:21:49.405Z,22.84
2023-05-01T08:24:16.833Z,22.81
2023-05-01T08:26:44.086Z,23.13
2023-05-01T08:29:11.675Z,23.40
2023-05-01T08:31:39.449Z,23.63
2023-05-01T08:34:06.980Z,23.77
2023-05-01T08:36:34.993Z,23.77
2023-05-01T08:39:02.422Z,23.73
2023-05-01T08:41:32.519Z,23.86
2023-05-01T08:44:04.054Z,24.24
2023-05-01T08:46:46.820Z,24.24
2023-05-01T08:49:20.301Z,24.31
2023-05-01T08:51:52.890Z,24.29
2023-05-01T08:54:22.045Z,23.52
2023-05-01T08:56:53.399Z,24.10
2023-05-01T08:59:23.898Z,24.18
2023-05-01T09:01:52.748Z,24.08
2023-05-01T09:04:21.358Z,24.15
2023-05-01T09:06:49.740Z,24.03
2023-05-01T09:09:17.120Z,24.14
2023-05-01T09:11:45.276Z,24.63
2023-05-01T09:14:12.781Z,24.85
2023-05-01T09:16:39.949Z,24.76
2023-05-01T09:19:07.392Z,24.66
2023-05-01T09:21:34.517Z,24.70
2023-05-01T09:24:02.719Z,24.86
2023-05-01T09:26:29.958Z,24.88
2023-05-01T09:28:58.380Z,25.29
2023-05-01T09:31:30.317Z,25.28
2023-05-01T09:34:04.214Z,25.29
2023-05-01T09:36:34.408Z,24.68
2023-05-01T09:39:02.638Z,25.21
2023-05-01T09:41:33.012Z,25.35
2023-05-01T09:44:01.483Z,25.47
2023-05-01T09:46:28.777Z,25.57
2023-05-01T09:49:01.064Z,26.02
2023-05-01T09:51:34.585Z,25.61
2023-05-01T09:54:06.475Z,25.73
2023-05-01T09:56:48.355Z,25.92
2023-05-01T09:59:20.216Z,26.09
2023-05-01T10:01:50.022Z,25.95
2023-05-01T10:04:18.165Z,25.39
2023-05-01T10:06:46.386Z,25.80
2023-05-01T10:09:28.956Z,26.32
2023-05-01T10:11:57.735Z,26.47
2023-05-01T10:14:26.911Z,25.67
2023-05-01T10:16:54.505Z,26.18
2023-05-01T10:19:22.262Z,26.16
2023-05-01T10:21:49.836Z,26.51
2023-05-01T10:24:18.303Z,26.57
2023-05-01T10:26:50.764Z,26.31
2023-05-01T10:29:24.569Z,26.12
2023-05-01T10:31:52.191Z,24.90
2023-05-01T10:34:24.190Z,23.78
2023-05-01T10:37:01.001Z,24.83
2023-05-01T10:39:36.619Z,24.27
2023-05-01T10:42:14.276Z,24.49
2023-05-01T10:44:43.205Z,25.29
2023-05-01T10:47:27.726Z,25.65
2023-05-01T10:50:10.379Z,25.83
2023-05-01T10:53:11.844Z,25.81
2023-05-01T10:55:44.928Z,26.13
2023-05-01T10:58:14.576Z,26.15
2023-05-01T11:00:42.250Z,26.23
2023-05-01T11:03:29.697Z,25.66
2023-05-01T11:06:00.811Z,25.73
2023-05-01T11:08:31.623Z,25.84
2023-05-01T11:11:21.824Z,25.79
2023-05-01T11:14:10.896Z,25.94
2023-05-01T11:16:42.017Z,25.07
2023-05-01T11:19:47.589Z,25.23
2023-05-01T11:22:15.466Z,25.46
2023-05-01T11:24:43.287Z,25.43
2023-05-01T11:27:14.326Z,25.37
2023-05-01T11:29:45.872Z,23.96
2023-05-01T11:32:23.914Z,23.76
2023-05-01T11:34:52.256Z,25.19
2023-05-01T11:37:20.919Z,25.31
2023-05-01T11:39:52.706Z,25.60
2023-05-01T11:42:22.629Z,25.47
2023-05-01T11:45:11.201Z,24.94
2023-05-01T11:47:39.739Z,24.86
2023-05-01T11:50:09.117Z,23.76
2023-05-01T11:52:54.879Z,24.88
2023-05-01T11:55:35.245Z,24.47
2023-05-01T11:58:04.907Z,25.22
2023-05-01T12:00:36.698Z,25.31
2023-05-01T12:03:12.676Z,25.11
2023-05-01T12:05:43.776Z,25.01
2023-05-01T12:08:21.122Z,25.16
2023-05-01T12:10:56.107Z,25.29
2023-05-01T12:13:27.199Z,24.22
2023-05-01T12:15:56.495Z,24.45
2023-05-01T12:18:24.150Z,24.41
2023-05-01T12:20:54.656Z,24.33
2023-05-01T12:23:37.711Z,23.73
2023-05-01T12:26:25.843Z,23.49
2023-05-01T12:29:06.291Z,24.58
2023-05-01T12:31:34.046Z,24.56
2023-05-01T12:34:02.556Z,24.75
2023-05-01T12:36:33.355Z,24.08
2023-05-01T12:39:14.696Z,24.16
2023-05-01T12:41:48.379Z,24.13
2023-05-01T12:44:30.782Z,24.76
2023-05-01T12:47:03.180Z,24.63
2023-05-01T12:49:32.627Z,24.87
2023-05-01T12:52:03.802Z,24.97
2023-05-01T12:54:43.178Z,24.27
2023-05-01T12:57:17.896Z,24.55
2023-05-01T12:59:48.201Z,24.40
2023-05-01T13:02:18.198Z,24.98
2023-05-01T13:04:50.160Z,25.31
2023-05-01T13:07:19.586Z,25.34
2023-05-01T13:09:59.435Z,24.87
2023-05-01T13:12:28.763Z,24.11
2023-05-01T13:14:57.626Z,23.62
2023-05-01T13:17:33.217Z,23.80
2023-05-01T13:20:05.616Z,23.27
2023-05-01T13:22:39.543Z,23.14
2023-05-01T13:25:22.498Z,23.88
2023-05-01T13:27:52.497Z,24.32
2023-05-01T13:30:31.748Z,23.75
2023-05-01T13:32:59.237Z,24.03
2023-05-01T13:35:28.002Z,24.14
2023-05-01T13:37:55.564Z,24.59
2023-05-01T13:40:27.540Z,23.89
2023-05-01T13:42:54.991Z,23.68
2023-05-01T13:45:23.032Z,24.46
2023-05-01T13:47:51.892Z,24.56
2023-05-01T13:50:19.751Z,23.75
2023-05-01T13:52:48.489Z,24.05
2023-05-01T13:55:17.692Z,24.08
2023-05-01T13:57:44.935Z,24.03
2023-05-01T14:00:19.911Z,24.48
2023-05-01T14:02:49.266Z,24.33
2023-05-01T14:05:24.605Z,24.35
2023-05-01T14:07:56.787Z,24.31
2023-05-01T14:10:28.861Z,24.46
2023-05-01T14:13:00.974Z,24.10
2023-05-01T14:15:33.545Z,23.96
2023-05-01T14:18:06.761Z,23.84
2023-05-01T14:20:34.271Z,24.28
2023-05-01T14:23:03.813Z,24.15
2023-05-01T14:25:34.904Z,23.42
2023-05-01T14:28:09.405Z,23.75
2023-05-01T14:30:39.070Z,23.87
2023-05-01T14:33:12.775Z,24.23
2023-05-01T14:35:50.967Z,24.00
2023-05-01T14:38:21.420Z,23.74
2023-05-01T14:40:49.142Z,24.30
2023-05-01T14:43:24.082Z,24.40
2023-05-01T14:45:52.707Z,23.09
2023-05-01T14:48:25.846Z,23.53
2023-05-01T14:50:54.841Z,23.18
2023-05-01T14:53:23.213Z,23.32
2023-05-01T14:55:52.146Z,23.24
2023-05-01T14:58:19.508Z,23.71
2023-05-01T15:00:46.919Z,22.91
2023-05-01T15:03:14.186Z,23.04
2023-05-01T15:05:41.829Z,23.65
2023-05-01T15:08:09.694Z,23.69
2023-05-01T15:10:38.588Z,23.23
2023-05-01T15:13:06.668Z,23.34
2023-05-01T15:15:34.131Z,22.92
2023-05-01T15:18:02.407Z,22.96
2023-05-01T15:20:31.304Z,23.18
2023-05-01T15:22:58.411Z,22.96
2023-05-01T15:25:26.523Z,23.05
2023-05-01T15:27:53.787Z,22.67
2023-05-01T15:30:21.298Z,22.00
2023-05-01T15:32:48.751Z,22.73
2023-05-01T15:35:17.305Z,23.20
2023-05-01T15:37:44.388Z,22.23
2023-05-01T15:40:12.283Z,22.30
2023-05-01T15:42:39.862Z,22.42
2023-05-01T15:45:08.348Z,22.90
2023-05-01T15:47:35.536Z,22.19
2023-05-01T15:50:03.780Z,22.37
2023-05-01T15:52:31.200Z,22.87
2023-05-01T15:54:59.013Z,22.27
2023-05-01T15:57:26.239Z,21.38
2023-05-01T15:59:55.689Z,21.65
2023-05-01T16:02:23.233Z,21.23
2023-05-01T16:04:51.832Z,21.57
2023-05-01T16:07:21.150Z,21.54
2023-05-01T16:09:49.292Z,21.00
2023-05-01T16:12:16.490Z,21.21
2023-05-01T16:14:44.393Z,20.78
2023-05-01T16:17:11.756Z,20.78
2023-05-01T16:19:39.374Z,21.15
2023-05-01T16:22:07.142Z,21.37
2023-05-01T16:24:36.295Z,20.85
2023-05-01T16:27:03.850Z,20.88
2023-05-01T16:29:35.306Z,20.95
2023-05-01T16:32:05.873Z,21.32
2023-05-01T16:34:33.324Z,21.37
2023-05-01T16:37:00.631Z,21.03
2023-05-01T16:39:28.066Z,21.14
2023-05-01T16:41:55.646Z,21.19
2023-05-01T16:44:23.433Z,21.78
2023-05-01T16:46:58.490Z,21.34
2023-05-01T16:49:30.007Z,20.51
2023-05-01T16:51:58.453Z,20.21
2023-05-01T16:54:32.033Z,20.36
2023-05-01T16:56:59.631Z,20.93
2023-05-01T16:59:28.213Z,21.00
2023-05-01T17:01:55.882Z,21.23
2023-05-01T17:04:23.469Z,21.32
2023-05-01T17:06:50.713Z,21.30
2023-05-01T17:09:18.197Z,21.25
2023-05-01T17:11:56.685Z,21.28
2023-05-01T17:14:24.528Z,21.33
2023-05-01T17:16:51.833Z,21.23
2023-05-01T17:19:19.661Z,21.42
2023-05-01T17:21:47.059Z,21.24
2023-05-01T17:24:14.511Z,21.07
2023-05-01T17:26:41.742Z,21.10
2023-05-01T17:29:09.133Z,20.95
2023-05-01T17:31:36.453Z,21.06
2023-05-01T17:34:04.335Z,21.06
2023-05-01T17:36:32.154Z,21.06
2023-05-01T17:39:02.236Z,21.07
2023-05-01T17:41:29.592Z,21.01
2023-05-01T17:43:57.112Z,21.03
2023-05-01T17:46:24.714Z,21.06
2023-05-01T17:48:52.310Z,20.98
2023-05-01T17:51:19.563Z,20.91
2023-05-01T17:53:47.481Z,20.76
2023-05-01T17:56:14.844Z,20.58
2023-05-01T17:58:42.571Z,20.61
2023-05-01T18:01:10.407Z,20.44
2023-05-01T18:03:39.098Z,20.37
2023-05-01T18:06:06.536Z,20.28
2023-05-01T18:08:34.496Z,20.27
2023-05-01T18:11:02.519Z,20.21
2023-05-01T18:13:33.350Z,20.09
2023-05-01T18:16:00.794Z,19.93
2023-05-01T18:18:31.651Z,19.80
2023-05-01T18:20:58.770Z,19.68
2023-05-01T18:23:26.292Z,19.55
2023-05-01T18:25:54.799Z,19.43
2023-05-01T18:28:22.743Z,19.35
2023-05-01T18:30:50.061Z,19.29
2023-05-01T18:33:18.112Z,19.17
2023-05-01T18:35:45.360Z,19.06
2023-05-01T18:38:12.811Z,18.92
2023-05-01T18:40:39.995Z,18.82
2023-05-01T18:43:07.452Z,18.72
2023-05-01T18:45:34.516Z,18.63
2023-05-01T18:48:03.566Z,18.56
2023-05-01T18:50:30.890Z,18.45
2023-05-01T18:52:58.280Z,18.41
2023-05-01T18:55:26.705Z,18.35
2023-05-01T18:57:54.092Z,18.28
2023-05-01T19:00:21.423Z,18.24
2023-05-01T19:02:52.195Z,18.17
2023-05-01T19:05:20.181Z,18.10
2023-05-01T19:07:48.067Z,17.98
2023-05-01T19:10:15.347Z,17.91
2023-05-01T19:12:42.869Z,17.85
2023-05-01T19:15:10.987Z,17.77
2023-05-01T19:17:39.108Z,17.71
2023-05-01T19:20:07.508Z,17.65
2023-05-01T19:22:34.886Z,17.58
2023-05-01T19:25:07.190Z,17.52
2023-05-01T19:27:34.664Z,17.48
2023-05-01T19:30:02.627Z,17.46
2023-05-01T19:32:30.516Z,17.42
2023-05-01T19:34:57.691Z,17.36
2023-05-01T19:37:27.755Z,17.32
2023-05-01T19:39:54.847Z,17.26
2023-05-01T19:42:22.138Z,17.22
2023-05-01T19:44:49.273Z,17.09
2023-05-01T19:47:16.961Z,16.98
2023-05-01T19:49:45.001Z,16.86
2023-05-01T19:52:12.316Z,16.78
2023-05-01T19:54:39.429Z,16.76
2023-05-01T19:57:06.864Z,16.71
2023-05-01T19:59:36.179Z,16.65
2023-05-01T20:02:04.199Z,16.58
2023-05-01T20:04:31.854Z,16.56
2023-05-01T20:06:59.320Z,16.50
2023-05-01T20:09:26.881Z,16.45
2023-05-01T20:11:54.244Z,16.39
2023-05-01T20:14:21.352Z,16.30
2023-05-01T20:16:53.133Z,16.25
2023-05-01T20:19:20.541Z,16.19
2023-05-01T20:21:48.910Z,16.13
2023-05-01T20:24:16.600Z,16.09
2023-05-01T20:26:44.025Z,16.03
2023-05-01T20:29:11.183Z,15.97
2023-05-01T20:31:38.702Z,15.93
2023-05-01T20:34:06.032Z,15.87
2023-05-01T20:36:33.686Z,15.80
2023-05-01T20:39:01.259Z,15.76
2023-05-01T20:41:29.334Z,15.73
2023-05-01T20:43:56.497Z,15.67
2023-05-01T20:46:24.745Z,15.63
2023-05-01T20:48:52.115Z,15.60
2023-05-01T20:51:19.867Z,15.54
2023-05-01T20:53:47.489Z,15.50
2023-05-01T20:56:14.985Z,15.43
2023-05-01T20:58:42.182Z,15.38
2023-05-01T21:01:09.890Z,15.33
2023-05-01T21:03:38.138Z,15.26
2023-05-01T21:06:05.717Z,15.18
2023-05-01T21:08:33.876Z,15.13
2023-05-01T21:11:02.467Z,15.07
2023-05-01T21:13:31.794Z,15.04
2023-05-01T21:16:00.201Z,15.06
2023-05-01T21:18:34.213Z,15.00
2023-05-01T21:21:04.774Z,14.92
2023-05-01T21:23:31.903Z,14.84
2023-05-01T21:25:59.357Z,14.81
2023-05-01T21:28:26.542Z,14.74
2023-05-01T21:30:55.220Z,14.66
2023-05-01T21:33:22.494Z,14.60
2023-05-01T21:35:50.042Z,14.57
2023-05-01T21:38:17.251Z,14.52
2023-05-01T21:40:46.140Z,14.48
2023-05-01T21:43:13.477Z,14.37
2023-05-01T21:45:44.426Z,14.33
2023-05-01T21:48:15.992Z,14.27
2023-05-01T21:50:43.563Z,14.21
2023-05-01T21:53:10.732Z,14.18
2023-05-01T21:55:39.320Z,14.13
2023-05-01T21:58:06.449Z,14.07
2023-05-01T22:00:34.107Z,14.05
2023-05-01T22:03:07.177Z,13.97
2023-05-01T22:05:34.986Z,13.92
2023-05-01T22:08:02.073Z,13.86
2023-05-01T22:10:29.742Z,13.81
2023-05-01T22:12:56.845Z,13.81
2023-05-01T22:15:24.608Z,13.74
2023-05-01T22:17:51.947Z,13.67
2023-05-01T22:20:19.397Z,13.63
2023-05-01T22:22:46.870Z,13.61
2023-05-01T22:25:14.386Z,13.55
2023-05-01T22:27:41.717Z,13.49
2023-05-01T22:30:10.168Z,13.41
2023-05-01T22:32:37.508Z,13.36
2023-05-01T22:35:07.252Z,13.30
2023-05-01T22:37:34.487Z,13.24
2023-05-01T22:40:02.097Z,13.20
2023-05-01T22:42:29.422Z,13.20
2023-05-01T22:44:56.811Z,13.08
2023-05-01T22:47:24.278Z,13.00
2023-05-01T22:49:51.601Z,12.97
2023-05-01T22:52:18.873Z,12.90
2023-05-01T22:54:47.138Z,12.87
2023-05-01T22:57:14.273Z,12.83
2023-05-01T22:59:41.645Z,12.77
2023-05-01T23:02:09.142Z,12.72
2023-05-01T23:04:36.630Z,12.63
2023-05-01T23:07:03.740Z,12.58
2023-05-01T23:09:32.157Z,12.56
2023-05-01T23:11:59.292Z,12.50
2023-05-01T23:14:26.618Z,12.47
2023-05-01T23:16:54.011Z,12.43
2023-05-01T23:19:24.220Z,12.38
2023-05-01T23:22:08.605Z,12.31
2023-05-01T23:24:50.786Z,12.22
2023-05-01T23:27:20.111Z,12.16
2023-05-01T23:29:57.598Z,12.16
2023-05-01T23:32:31.961Z,12.15
2023-05-01T23:35:13.853Z,12.10
2023-05-01T23:37:41.752Z,12.05
2023-05-01T23:40:09.646Z,11.97
2023-05-01T23:42:38.447Z,11.91
2023-05-01T23:45:08.105Z,11.84
2023-05-01T23:47:36.337Z,11.81
2023-05-01T23:50:04.329Z,11.72
2023-05-01T23:52:31.628Z,11.67
2023-05-01T23:54:59.108Z,11.67
2023-05-01T23:57:27.093Z,11.66
2023-05-01T23:59:54.730Z,11.67
